sensor_id;sensor_type;location;lat;lon;timestamp;P1;durP1;ratioP1;P2;durP2;ratioP2
53642;SDS011;39546;45.534;12.048;2023-07-13T00:01:28;1.75;;;1.27;;
53642;SDS011;39546;45.534;12.048;2023-07-13T00:07:30;3.58;;;1.42;;
53642;SDS011;39546;45.534;12.048;2023-07-13T00:13:32;1.98;;;1.25;;
53642;SDS011;39546;45.534;12.048;2023-07-13T00:19:34;3.05;;;1.48;;
53642;SDS011;39546;45.534;12.048;2023-07-13T00:25:37;3.85;;;1.73;;
53642;SDS011;39546;45.534;12.048;2023-07-13T00:31:39;5.45;;;2.40;;
53642;SDS011;39546;45.534;12.048;2023-07-13T00:37:41;2.95;;;1.67;;
53642;SDS011;39546;45.534;12.048;2023-07-13T00:43:43;2.28;;;1.20;;
53642;SDS011;39546;45.534;12.048;2023-07-13T00:49:45;3.47;;;1.77;;
53642;SDS011;39546;45.534;12.048;2023-07-13T00:55:48;4.95;;;1.15;;
53642;SDS011;39546;45.534;12.048;2023-07-13T01:01:52;0.88;;;0.62;;
53642;SDS011;39546;45.534;12.048;2023-07-13T01:14:28;2.87;;;0.95;;
53642;SDS011;39546;45.534;12.048;2023-07-13T01:20:31;3.50;;;1.33;;
53642;SDS011;39546;45.534;12.048;2023-07-13T01:26:37;0.82;;;0.80;;
53642;SDS011;39546;45.534;12.048;2023-07-13T01:32:41;4.90;;;1.17;;
53642;SDS011;39546;45.534;12.048;2023-07-13T01:38:44;0.55;;;0.50;;
53642;SDS011;39546;45.534;12.048;2023-07-13T01:44:46;1.10;;;0.73;;
53642;SDS011;39546;45.534;12.048;2023-07-13T01:50:48;1.48;;;0.62;;
53642;SDS011;39546;45.534;12.048;2023-07-13T01:56:50;0.95;;;0.45;;
53642;SDS011;39546;45.534;12.048;2023-07-13T02:02:52;3.53;;;1.35;;
53642;SDS011;39546;45.534;12.048;2023-07-13T02:08:54;0.88;;;0.52;;
53642;SDS011;39546;45.534;12.048;2023-07-13T02:14:56;1.20;;;0.60;;
53642;SDS011;39546;45.534;12.048;2023-07-13T02:20:58;1.10;;;0.65;;
53642;SDS011;39546;45.534;12.048;2023-07-13T02:27:00;1.90;;;0.80;;
53642;SDS011;39546;45.534;12.048;2023-07-13T02:33:03;1.00;;;0.60;;
53642;SDS011;39546;45.534;12.048;2023-07-13T02:39:05;1.23;;;0.62;;
53642;SDS011;39546;45.534;12.048;2023-07-13T02:45:10;1.40;;;0.73;;
53642;SDS011;39546;45.534;12.048;2023-07-13T02:51:14;3.45;;;0.95;;
53642;SDS011;39546;45.534;12.048;2023-07-13T02:57:16;1.33;;;0.40;;
53642;SDS011;39546;45.534;12.048;2023-07-13T03:03:18;0.73;;;0.57;;
53642;SDS011;39546;45.534;12.048;2023-07-13T03:09:20;2.30;;;0.50;;
53642;SDS011;39546;45.534;12.048;2023-07-13T03:15:23;0.77;;;0.47;;
53642;SDS011;39546;45.534;12.048;2023-07-13T03:21:26;2.65;;;1.08;;
53642;SDS011;39546;45.534;12.048;2023-07-13T03:27:28;3.35;;;0.90;;
53642;SDS011;39546;45.534;12.048;2023-07-13T03:33:30;2.05;;;1.00;;
53642;SDS011;39546;45.534;12.048;2023-07-13T03:39:33;2.20;;;1.08;;
53642;SDS011;39546;45.534;12.048;2023-07-13T03:45:37;3.22;;;1.52;;
53642;SDS011;39546;45.534;12.048;2023-07-13T03:51:39;1.12;;;0.77;;
53642;SDS011;39546;45.534;12.048;2023-07-13T03:57:41;1.67;;;1.08;;
53642;SDS011;39546;45.534;12.048;2023-07-13T04:03:44;2.78;;;1.25;;
53642;SDS011;39546;45.534;12.048;2023-07-13T04:09:48;2.30;;;1.12;;
53642;SDS011;39546;45.534;12.048;2023-07-13T04:15:50;2.20;;;1.17;;
53642;SDS011;39546;45.534;12.048;2023-07-13T04:21:53;3.35;;;1.60;;
53642;SDS011;39546;45.534;12.048;2023-07-13T04:27:55;1.58;;;1.08;;
53642;SDS011;39546;45.534;12.048;2023-07-13T04:33:57;1.58;;;0.90;;
53642;SDS011;39546;45.534;12.048;2023-07-13T04:39:59;2.03;;;0.93;;
53642;SDS011;39546;45.534;12.048;2023-07-13T04:46:08;1.98;;;1.37;;
53642;SDS011;39546;45.534;12.048;2023-07-13T04:52:13;6.07;;;1.23;;
53642;SDS011;39546;45.534;12.048;2023-07-13T04:58:15;4.05;;;0.88;;
53642;SDS011;39546;45.534;12.048;2023-07-13T05:04:17;1.87;;;1.17;;
53642;SDS011;39546;45.534;12.048;2023-07-13T05:10:19;4.28;;;1.70;;
53642;SDS011;39546;45.534;12.048;2023-07-13T05:16:22;3.28;;;1.23;;
53642;SDS011;39546;45.534;12.048;2023-07-13T05:22:24;3.80;;;1.45;;
53642;SDS011;39546;45.534;12.048;2023-07-13T05:28:26;1.45;;;0.75;;
53642;SDS011;39546;45.534;12.048;2023-07-13T05:34:29;1.58;;;1.10;;
53642;SDS011;39546;45.534;12.048;2023-07-13T05:40:31;1.17;;;0.85;;
53642;SDS011;39546;45.534;12.048;2023-07-13T05:46:33;1.55;;;0.73;;
53642;SDS011;39546;45.534;12.048;2023-07-13T05:52:35;2.22;;;1.02;;
53642;SDS011;39546;45.534;12.048;2023-07-13T05:58:38;2.70;;;1.02;;
53642;SDS011;39546;45.534;12.048;2023-07-13T06:04:40;2.05;;;1.00;;
53642;SDS011;39546;45.534;12.048;2023-07-13T06:10:43;1.62;;;0.93;;
53642;SDS011;39546;45.534;12.048;2023-07-13T06:16:45;2.08;;;0.82;;
53642;SDS011;39546;45.534;12.048;2023-07-13T06:22:47;1.02;;;0.68;;
53642;SDS011;39546;45.534;12.048;2023-07-13T06:28:49;4.10;;;1.50;;
53642;SDS011;39546;45.534;12.048;2023-07-13T06:34:51;0.60;;;0.50;;
53642;SDS011;39546;45.534;12.048;2023-07-13T06:40:53;1.73;;;0.98;;
53642;SDS011;39546;45.534;12.048;2023-07-13T06:46:55;0.70;;;0.55;;
53642;SDS011;39546;45.534;12.048;2023-07-13T06:52:57;3.40;;;1.17;;
53642;SDS011;39546;45.534;12.048;2023-07-13T06:59:00;1.12;;;0.50;;
53642;SDS011;39546;45.534;12.048;2023-07-13T07:05:03;1.67;;;0.77;;
53642;SDS011;39546;45.534;12.048;2023-07-13T07:11:05;2.28;;;0.50;;
53642;SDS011;39546;45.534;12.048;2023-07-13T07:17:10;2.70;;;0.82;;
53642;SDS011;39546;45.534;12.048;2023-07-13T07:23:12;2.17;;;1.12;;
53642;SDS011;39546;45.534;12.048;2023-07-13T07:29:15;1.75;;;0.62;;
53642;SDS011;39546;45.534;12.048;2023-07-13T07:35:17;1.85;;;0.70;;
53642;SDS011;39546;45.534;12.048;2023-07-13T07:41:20;2.08;;;0.88;;
53642;SDS011;39546;45.534;12.048;2023-07-13T07:47:22;0.93;;;0.60;;
53642;SDS011;39546;45.534;12.048;2023-07-13T07:53:25;3.67;;;1.00;;
53642;SDS011;39546;45.534;12.048;2023-07-13T07:59:27;2.75;;;0.75;;
53642;SDS011;39546;45.534;12.048;2023-07-13T08:05:30;2.55;;;1.12;;
53642;SDS011;39546;45.534;12.048;2023-07-13T08:11:32;2.65;;;1.05;;
53642;SDS011;39546;45.534;12.048;2023-07-13T08:17:34;6.07;;;0.85;;
53642;SDS011;39546;45.534;12.048;2023-07-13T08:23:36;1.77;;;0.82;;
53642;SDS011;39546;45.534;12.048;2023-07-13T08:29:39;4.55;;;1.42;;
53642;SDS011;39546;45.534;12.048;2023-07-13T08:35:41;7.30;;;1.67;;
53642;SDS011;39546;45.534;12.048;2023-07-13T08:41:50;3.12;;;1.92;;
53642;SDS011;39546;45.534;12.048;2023-07-13T08:48:05;3.37;;;1.10;;
53642;SDS011;39546;45.534;12.048;2023-07-13T08:54:23;1.35;;;0.82;;
53642;SDS011;39546;45.534;12.048;2023-07-13T09:00:36;1.80;;;1.10;;
53642;SDS011;39546;45.534;12.048;2023-07-13T09:19:46;3.10;;;1.30;;
53642;SDS011;39546;45.534;12.048;2023-07-13T09:26:05;3.47;;;1.48;;
53642;SDS011;39546;45.534;12.048;2023-07-13T09:32:10;1.55;;;0.80;;
53642;SDS011;39546;45.534;12.048;2023-07-13T09:38:17;5.82;;;1.30;;
53642;SDS011;39546;45.534;12.048;2023-07-13T09:50:45;3.10;;;1.12;;
53642;SDS011;39546;45.534;12.048;2023-07-13T09:56:47;1.17;;;0.55;;
53642;SDS011;39546;45.534;12.048;2023-07-13T10:09:22;1.00;;;0.57;;
53642;SDS011;39546;45.534;12.048;2023-07-13T10:15:24;2.62;;;0.95;;
53642;SDS011;39546;45.534;12.048;2023-07-13T10:21:28;3.10;;;1.50;;
53642;SDS011;39546;45.534;12.048;2023-07-13T10:27:58;1.87;;;1.10;;
53642;SDS011;39546;45.534;12.048;2023-07-13T10:34:08;5.85;;;2.05;;
53642;SDS011;39546;45.534;12.048;2023-07-13T10:40:16;2.87;;;1.30;;
53642;SDS011;39546;45.534;12.048;2023-07-13T10:46:25;3.00;;;1.70;;
53642;SDS011;39546;45.534;12.048;2023-07-13T10:52:42;3.87;;;1.67;;
53642;SDS011;39546;45.534;12.048;2023-07-13T10:58:47;2.25;;;0.82;;
53642;SDS011;39546;45.534;12.048;2023-07-13T11:05:25;4.72;;;1.65;;
53642;SDS011;39546;45.534;12.048;2023-07-13T11:11:32;1.15;;;1.00;;
53642;SDS011;39546;45.534;12.048;2023-07-13T11:17:50;1.97;;;0.93;;
53642;SDS011;39546;45.534;12.048;2023-07-13T11:24:16;2.62;;;1.15;;
53642;SDS011;39546;45.534;12.048;2023-07-13T11:30:25;3.55;;;1.08;;
53642;SDS011;39546;45.534;12.048;2023-07-13T11:36:37;4.20;;;1.20;;
53642;SDS011;39546;45.534;12.048;2023-07-13T11:42:44;2.80;;;1.25;;
53642;SDS011;39546;45.534;12.048;2023-07-13T11:49:21;2.95;;;1.25;;
53642;SDS011;39546;45.534;12.048;2023-07-13T11:55:25;4.28;;;1.95;;
53642;SDS011;39546;45.534;12.048;2023-07-13T12:01:27;2.03;;;1.70;;
53642;SDS011;39546;45.534;12.048;2023-07-13T12:13:39;3.25;;;1.50;;
53642;SDS011;39546;45.534;12.048;2023-07-13T12:19:41;6.78;;;3.03;;
53642;SDS011;39546;45.534;12.048;2023-07-13T12:25:43;3.95;;;2.28;;
53642;SDS011;39546;45.534;12.048;2023-07-13T12:31:46;5.40;;;2.10;;
53642;SDS011;39546;45.534;12.048;2023-07-13T12:37:50;6.82;;;2.95;;
53642;SDS011;39546;45.534;12.048;2023-07-13T12:43:54;3.85;;;2.70;;
53642;SDS011;39546;45.534;12.048;2023-07-13T12:49:59;6.68;;;2.75;;
53642;SDS011;39546;45.534;12.048;2023-07-13T12:56:08;3.28;;;2.45;;
53642;SDS011;39546;45.534;12.048;2023-07-13T13:08:35;4.45;;;2.42;;
53642;SDS011;39546;45.534;12.048;2023-07-13T13:14:38;5.82;;;2.83;;
53642;SDS011;39546;45.534;12.048;2023-07-13T13:20:41;6.50;;;3.60;;
53642;SDS011;39546;45.534;12.048;2023-07-13T13:26:43;6.03;;;2.42;;
53642;SDS011;39546;45.534;12.048;2023-07-13T13:32:47;7.80;;;2.90;;
53642;SDS011;39546;45.534;12.048;2023-07-13T13:38:50;6.25;;;3.15;;
53642;SDS011;39546;45.534;12.048;2023-07-13T13:44:52;6.28;;;3.17;;
53642;SDS011;39546;45.534;12.048;2023-07-13T13:50:54;3.15;;;2.08;;
53642;SDS011;39546;45.534;12.048;2023-07-13T13:56:56;7.95;;;3.12;;
53642;SDS011;39546;45.534;12.048;2023-07-13T14:03:00;6.78;;;3.37;;
53642;SDS011;39546;45.534;12.048;2023-07-13T14:09:04;6.43;;;2.83;;
53642;SDS011;39546;45.534;12.048;2023-07-13T14:21:21;5.65;;;3.05;;
53642;SDS011;39546;45.534;12.048;2023-07-13T14:27:24;10.07;;;3.65;;
53642;SDS011;39546;45.534;12.048;2023-07-13T14:33:26;3.45;;;2.12;;
53642;SDS011;39546;45.534;12.048;2023-07-13T14:39:28;3.97;;;2.08;;
53642;SDS011;39546;45.534;12.048;2023-07-13T14:45:30;5.60;;;2.70;;
53642;SDS011;39546;45.534;12.048;2023-07-13T14:51:33;4.50;;;2.25;;
53642;SDS011;39546;45.534;12.048;2023-07-13T14:57:36;2.92;;;2.00;;
53642;SDS011;39546;45.534;12.048;2023-07-13T15:03:38;4.32;;;2.60;;
53642;SDS011;39546;45.534;12.048;2023-07-13T15:09:46;5.07;;;2.55;;
53642;SDS011;39546;45.534;12.048;2023-07-13T15:15:52;6.07;;;1.97;;
53642;SDS011;39546;45.534;12.048;2023-07-13T15:21:55;3.40;;;2.08;;
53642;SDS011;39546;45.534;12.048;2023-07-13T15:27:59;2.60;;;1.52;;
53642;SDS011;39546;45.534;12.048;2023-07-13T15:34:03;2.37;;;1.67;;
53642;SDS011;39546;45.534;12.048;2023-07-13T15:40:12;4.57;;;1.92;;
53642;SDS011;39546;45.534;12.048;2023-07-13T15:46:15;4.03;;;2.33;;
53642;SDS011;39546;45.534;12.048;2023-07-13T15:52:21;3.45;;;2.35;;
53642;SDS011;39546;45.534;12.048;2023-07-13T15:58:25;6.37;;;2.42;;
53642;SDS011;39546;45.534;12.048;2023-07-13T16:04:27;4.60;;;2.15;;
53642;SDS011;39546;45.534;12.048;2023-07-13T16:10:30;2.87;;;1.70;;
53642;SDS011;39546;45.534;12.048;2023-07-13T16:16:35;1.62;;;1.05;;
53642;SDS011;39546;45.534;12.048;2023-07-13T16:22:37;3.97;;;1.98;;
53642;SDS011;39546;45.534;12.048;2023-07-13T16:28:40;10.73;;;2.47;;
53642;SDS011;39546;45.534;12.048;2023-07-13T16:34:44;6.90;;;2.65;;
53642;SDS011;39546;45.534;12.048;2023-07-13T16:40:47;2.15;;;1.35;;
53642;SDS011;39546;45.534;12.048;2023-07-13T16:46:51;4.72;;;1.90;;
53642;SDS011;39546;45.534;12.048;2023-07-13T16:58:59;2.92;;;1.48;;
53642;SDS011;39546;45.534;12.048;2023-07-13T17:05:02;3.45;;;1.30;;
53642;SDS011;39546;45.534;12.048;2023-07-13T17:17:33;3.00;;;1.70;;
53642;SDS011;39546;45.534;12.048;2023-07-13T17:23:43;3.58;;;1.75;;
53642;SDS011;39546;45.534;12.048;2023-07-13T17:29:46;2.25;;;1.62;;
53642;SDS011;39546;45.534;12.048;2023-07-13T17:35:51;1.85;;;1.23;;
53642;SDS011;39546;45.534;12.048;2023-07-13T17:41:53;1.35;;;1.08;;
53642;SDS011;39546;45.534;12.048;2023-07-13T17:47:56;4.20;;;1.02;;
53642;SDS011;39546;45.534;12.048;2023-07-13T17:54:00;3.10;;;1.40;;
53642;SDS011;39546;45.534;12.048;2023-07-13T18:00:03;2.83;;;1.37;;
53642;SDS011;39546;45.534;12.048;2023-07-13T18:06:27;2.85;;;1.30;;
53642;SDS011;39546;45.534;12.048;2023-07-13T18:12:32;1.45;;;0.95;;
53642;SDS011;39546;45.534;12.048;2023-07-13T18:18:36;1.95;;;0.98;;
53642;SDS011;39546;45.534;12.048;2023-07-13T18:24:38;4.75;;;1.87;;
53642;SDS011;39546;45.534;12.048;2023-07-13T18:30:41;3.20;;;1.30;;
53642;SDS011;39546;45.534;12.048;2023-07-13T18:36:45;2.35;;;1.27;;
53642;SDS011;39546;45.534;12.048;2023-07-13T18:42:47;2.67;;;1.45;;
53642;SDS011;39546;45.534;12.048;2023-07-13T18:48:51;6.87;;;1.12;;
53642;SDS011;39546;45.534;12.048;2023-07-13T18:54:54;2.00;;;1.08;;
53642;SDS011;39546;45.534;12.048;2023-07-13T19:00:56;5.87;;;1.90;;
53642;SDS011;39546;45.534;12.048;2023-07-13T19:07:02;2.72;;;1.65;;
53642;SDS011;39546;45.534;12.048;2023-07-13T19:13:07;4.22;;;1.25;;
53642;SDS011;39546;45.534;12.048;2023-07-13T19:19:13;2.40;;;1.35;;
53642;SDS011;39546;45.534;12.048;2023-07-13T19:25:16;1.90;;;0.98;;
53642;SDS011;39546;45.534;12.048;2023-07-13T19:31:26;2.62;;;1.17;;
53642;SDS011;39546;45.534;12.048;2023-07-13T19:37:34;1.77;;;1.20;;
53642;SDS011;39546;45.534;12.048;2023-07-13T19:43:37;7.32;;;1.70;;
53642;SDS011;39546;45.534;12.048;2023-07-13T19:49:40;2.60;;;1.33;;
53642;SDS011;39546;45.534;12.048;2023-07-13T19:55:42;4.55;;;1.48;;
53642;SDS011;39546;45.534;12.048;2023-07-13T20:01:44;1.87;;;1.25;;
53642;SDS011;39546;45.534;12.048;2023-07-13T20:07:50;4.95;;;2.08;;
53642;SDS011;39546;45.534;12.048;2023-07-13T20:13:56;2.00;;;1.27;;
53642;SDS011;39546;45.534;12.048;2023-07-13T20:19:59;4.35;;;1.73;;
53642;SDS011;39546;45.534;12.048;2023-07-13T20:26:02;2.72;;;1.52;;
53642;SDS011;39546;45.534;12.048;2023-07-13T20:32:07;6.93;;;1.20;;
53642;SDS011;39546;45.534;12.048;2023-07-13T20:38:13;3.85;;;1.60;;
53642;SDS011;39546;45.534;12.048;2023-07-13T20:44:16;7.72;;;2.08;;
53642;SDS011;39546;45.534;12.048;2023-07-13T20:56:28;4.57;;;2.33;;
53642;SDS011;39546;45.534;12.048;2023-07-13T21:02:31;2.40;;;1.65;;
53642;SDS011;39546;45.534;12.048;2023-07-13T21:08:34;3.90;;;1.98;;
53642;SDS011;39546;45.534;12.048;2023-07-13T21:14:36;3.72;;;1.73;;
53642;SDS011;39546;45.534;12.048;2023-07-13T21:20:38;4.90;;;2.20;;
53642;SDS011;39546;45.534;12.048;2023-07-13T21:26:43;6.43;;;2.00;;
53642;SDS011;39546;45.534;12.048;2023-07-13T21:32:46;3.17;;;2.17;;
53642;SDS011;39546;45.534;12.048;2023-07-13T21:38:55;4.10;;;1.98;;
53642;SDS011;39546;45.534;12.048;2023-07-13T21:45:01;3.03;;;1.73;;
53642;SDS011;39546;45.534;12.048;2023-07-13T21:51:36;3.30;;;2.37;;
53642;SDS011;39546;45.534;12.048;2023-07-13T21:57:31;11.98;;;2.85;;
53642;SDS011;39546;45.534;12.048;2023-07-13T22:03:34;2.65;;;1.85;;
53642;SDS011;39546;45.534;12.048;2023-07-13T22:09:38;3.33;;;2.20;;
53642;SDS011;39546;45.534;12.048;2023-07-13T22:15:40;2.72;;;2.00;;
53642;SDS011;39546;45.534;12.048;2023-07-13T22:21:42;8.82;;;2.97;;
53642;SDS011;39546;45.534;12.048;2023-07-13T22:27:45;4.62;;;1.80;;
53642;SDS011;39546;45.534;12.048;2023-07-13T22:33:51;4.62;;;1.80;;
53642;SDS011;39546;45.534;12.048;2023-07-13T22:39:53;4.30;;;1.55;;
53642;SDS011;39546;45.534;12.048;2023-07-13T22:46:00;3.55;;;2.15;;
53642;SDS011;39546;45.534;12.048;2023-07-13T22:52:17;5.07;;;2.53;;
53642;SDS011;39546;45.534;12.048;2023-07-13T22:58:36;6.25;;;3.05;;
53642;SDS011;39546;45.534;12.048;2023-07-13T23:04:41;3.55;;;2.35;;
53642;SDS011;39546;45.534;12.048;2023-07-13T23:10:44;8.00;;;2.95;;
53642;SDS011;39546;45.534;12.048;2023-07-13T23:16:55;7.53;;;3.83;;
53642;SDS011;39546;45.534;12.048;2023-07-13T23:30:06;5.30;;;2.87;;
53642;SDS011;39546;45.534;12.048;2023-07-13T23:36:14;4.55;;;2.37;;
53642;SDS011;39546;45.534;12.048;2023-07-13T23:42:17;7.07;;;3.90;;
53642;SDS011;39546;45.534;12.048;2023-07-13T23:48:19;4.72;;;2.92;;
53642;SDS011;39546;45.534;12.048;2023-07-13T23:54:22;4.22;;;2.20;;
